• Join FlightAware (Why Join?)
  • Login
  • US Flag 
08:43PM EST


 

Airport Tracker/Info


-or-


 

Live Flight TrackerFlight Track Log ✈ N59CW ✈ 13-Apr-2014 ✈ KPIE - KABY

Flight Track Log - Related Links

Times and Time Zones

All times are in EDT time to prevent confusion due to time zone crossing. See the N59CW flight status page for this flight to view local times or setup timezone preferences in your user account.

Time Position Orientation Groundspeed Altitude Reporting Facility
EDT Latitude Longitude Course Direction KTS MPH feet Rate Location/Type
10:28AM 27.9167 -82.6833 319° Northwest 100 115 400  Level Tampa TRACON
10:30AM 27.9500 -82.7167 319° Northwest 107 123 1,400 720 Climbing Tampa TRACON
10:31AM 27.9667 -82.7333 319° Northwest 113 130 2,100 600 Climbing Tampa TRACON
10:32AM 28.0000 -82.7500 336° Northwest 119 137 2,700 600 Climbing Tampa TRACON
10:33AM 28.0167 -82.7667 319° Northwest 111 128 3,400 600 Climbing Tampa TRACON
10:34AM 28.0500 -82.7833 336° Northwest 114 131 3,900 480 Climbing Tampa TRACON
10:35AM 28.0833 -82.7833 360° North 118 136 4,400 480 Climbing Tampa TRACON
10:36AM 28.1167 -82.7833 360° North 118 136 4,900 300 Climbing Tampa TRACON
10:37AM 28.1500 -82.7833 360° North 136 157 5,100  Climbing Tampa TRACON
10:39AM 28.2458 -82.8100 346° North 148 170 5,100  Level Jacksonville Center
10:40AM 28.2833 -82.8194 347° North 148 170 5,100  Level Jacksonville Center
10:41AM 28.3211 -82.8242 354° North 143 165 5,100 -60 Level Jacksonville Center
10:42AM 28.3586 -82.8267 357° North 143 165 5,000 -60 Descending Jacksonville Center
10:43AM 28.4003 -82.8264 360° North 143 165 5,000  Level Jacksonville Center
10:44AM 28.4358 -82.8311 353° North 143 165 5,000  Level Jacksonville Center
10:45AM 28.4756 -82.8336 357° North 143 165 5,000  Level Jacksonville Center
10:46AM 28.5150 -82.8383 354° North 143 165 5,100  Climbing Jacksonville Center
10:47AM 28.5528 -82.8406 357° North 143 165 5,100 -60 Level Jacksonville Center
10:48AM 28.5922 -82.8500 348° North 143 165 5,000 -60 Descending Jacksonville Center
10:49AM 28.6300 -82.8594 348° North 143 165 5,000  Level Jacksonville Center
10:50AM 28.6675 -82.8667 350° North 143 165 5,100 300 Climbing Jacksonville Center
10:51AM 28.7050 -82.8736 351° North 143 165 5,600 360 Climbing Jacksonville Center
10:52AM 28.7406 -82.8831 347° North 138 159 5,900 240 Climbing Jacksonville Center
10:53AM 28.7803 -82.8903 351° North 138 159 6,100 60 Climbing Jacksonville Center
10:54AM 28.8156 -82.8997 347° North 138 159 6,100  Level Jacksonville Center
10:55AM 28.8553 -82.9069 351° North 138 159 6,100 -60 Level Jacksonville Center
10:56AM 28.8969 -82.9139 352° North 143 165 6,000 -60 Descending Jacksonville Center
10:57AM 28.9347 -82.9186 354° North 143 165 6,000  Level Jacksonville Center
10:58AM 28.9722 -82.9258 350° North 143 165 6,100  Climbing Jacksonville Center
10:59AM 29.0097 -82.9353 348° North 143 165 6,000 -60 Descending Jacksonville Center
11:00AM 29.0472 -82.9400 354° North 143 165 6,000  Level Jacksonville Center
11:01AM 29.0869 -82.9472 351° North 143 165 6,000  Level Jacksonville Center
11:02AM 29.1244 -82.9519 354° North 143 165 6,000  Level Jacksonville Center
11:03AM 29.1642 -82.9592 351° North 143 165 6,000  Level Jacksonville Center
11:04AM 29.2017 -82.9664 350° North 143 165 6,000  Level Jacksonville Center
11:05AM 29.2414 -82.9758 348° North 143 165 6,100  Climbing Jacksonville Center
11:06AM 29.2789 -82.9806 354° North 143 165 6,000 -60 Descending Jacksonville Center
11:07AM 29.3167 -82.9903 347° North 143 165 6,000  Level Jacksonville Center
11:08AM 29.3542 -82.9997 348° North 143 165 6,100  Climbing Jacksonville Center
11:09AM 29.3917 -83.0069 350° North 143 165 6,100  Level Jacksonville Center
11:10AM 29.4314 -83.0117 354° North 143 165 6,100 -60 Level Jacksonville Center
11:11AM 29.4731 -83.0167 354° North 143 165 6,000 -60 Descending Jacksonville Center
11:12AM 29.5106 -83.0239 350° North 143 165 6,000  Level Jacksonville Center
11:13AM 29.5483 -83.0311 351° North 143 165 6,000  Level Jacksonville Center
11:14AM 29.5878 -83.0383 351° North 143 165 6,100  Climbing Jacksonville Center
11:15AM 29.6233 -83.0550 338° Northwest 143 165 6,000  Descending Jacksonville Center
11:16AM 29.6547 -83.0861 319° Northwest 143 165 6,100  Climbing Jacksonville Center
11:17AM 29.6881 -83.1125 325° Northwest 143 165 6,100  Level Jacksonville Center
11:18AM 29.7214 -83.1342 331° Northwest 143 165 6,100  Level Jacksonville Center
11:19AM 29.7547 -83.1606 326° Northwest 143 165 6,100  Level Jacksonville Center
11:20AM 29.7861 -83.1869 324° Northwest 143 165 6,100  Level Jacksonville Center
11:21AM 29.8214 -83.2111 329° Northwest 148 170 6,100 -60 Level Jacksonville Center
11:22AM 29.8547 -83.2325 331° Northwest 148 170 6,000 -60 Descending Jacksonville Center
11:23AM 29.8903 -83.2567 329° Northwest 148 170 6,000  Level Jacksonville Center
11:24AM 29.9214 -83.2808 326° Northwest 148 170 6,100  Climbing Jacksonville Center
11:25AM 29.9547 -83.3072 326° Northwest 148 170 6,100  Level Jacksonville Center
11:26AM 29.9903 -83.3339 327° Northwest 148 170 6,100  Level Jacksonville Center
11:27AM 30.0236 -83.3581 328° Northwest 148 170 6,100 -60 Level Jacksonville Center
11:28AM 30.0567 -83.3844 325° Northwest 148 170 6,000 -60 Descending Jacksonville Center
11:29AM 30.0881 -83.4136 321° Northwest 148 170 6,000  Level Jacksonville Center
11:30AM 30.1214 -83.4400 326° Northwest 148 170 6,100  Climbing Jacksonville Center
11:31AM 30.1503 -83.4692 319° Northwest 148 170 6,100  Level Jacksonville Center
11:32AM 30.1836 -83.4981 323° Northwest 148 170 6,100  Level Jacksonville Center
11:33AM 30.2169 -83.5247 325° Northwest 148 170 6,100 -60 Level Jacksonville Center
11:34AM 30.2481 -83.5539 321° Northwest 148 170 6,000 -60 Descending Jacksonville Center
11:35AM 30.2814 -83.5758 330° Northwest 148 170 6,000  Level Jacksonville Center
11:36AM 30.3147 -83.6000 328° Northwest 143 165 6,100  Climbing Jacksonville Center
11:37AM 30.3481 -83.6244 328° Northwest 143 165 6,100  Level Jacksonville Center
11:38AM 30.3833 -83.6486 329° Northwest 143 165 6,100 -60 Level Jacksonville Center
11:39AM 30.4164 -83.6756 325° Northwest 143 165 6,000 -60 Descending Jacksonville Center
11:40AM 30.4497 -83.6997 328° Northwest 148 170 6,000  Level Jacksonville Center
11:41AM 30.4831 -83.7267 325° Northwest 142 163 6,000  Level Jacksonville Center
11:41AM 30.4914 -83.7314 334° Northwest 143 165 6,000  Level Jacksonville Center
11:42AM 30.5225 -83.7583 323° Northwest 144 166 6,000  Level Jacksonville Center
11:43AM 30.5556 -83.7875 323° Northwest 146 168 6,000  Level Jacksonville Center
11:44AM 30.5972 -83.8025 343° North 142 163 6,000 -60 Level Jacksonville Center
11:45AM 30.6328 -83.8147 344° North 143 165 5,900  Descending Jacksonville Center
11:47AM 30.6786 -83.8297 344° North 141 162 6,000 60 Climbing Jacksonville Center
11:48AM 30.7181 -83.8494 337° Northwest 146 168 6,100  Climbing Jacksonville Center
11:49AM 30.7556 -83.8644 341° North 145 167 6,000  Descending Jacksonville Center
11:50AM 30.7992 -83.8867 336° Northwest 143 165 6,100  Climbing Jacksonville Center
11:51AM 30.8389 -83.9039 340° North 143 165 6,000 -60 Descending Jacksonville Center
11:52AM 30.8803 -83.9189 343° North 145 167 6,000  Level Jacksonville Center
11:53AM 30.9158 -83.9386 335° Northwest 145 167 6,000  Level Jacksonville Center
11:54AM 30.9533 -83.9536 341° North 140 161 6,000  Level Jacksonville Center
11:54AM 30.9700 -83.9586 346° North 141 162 6,000  Level Jacksonville Center
11:55AM 31.0031 -83.9808 330° Northwest 142 163 6,000 -240 Level Jacksonville Center
11:56AM 31.0425 -84.0006 337° Northwest 149 171 5,600 -540 Descending Jacksonville Center
11:57AM 31.0822 -84.0181 339° North 155 178 5,000 -600 Descending Jacksonville Center
11:58AM 31.1239 -84.0258 351° North 149 171 4,400 -540 Descending Jacksonville Center
11:59AM 31.1653 -84.0411 342° North 149 171 4,000 -240 Descending Jacksonville Center
12:00PM 31.2050 -84.0536 345° North 144 166 4,000 -60 Level Jacksonville Center
12:01PM 31.2425 -84.0686 341° North 144 166 3,900  Descending Jacksonville Center
12:02PM 31.2797 -84.0886 335° Northwest 144 166 4,000  Climbing Jacksonville Center
12:03PM 31.3153 -84.1036 340° North 144 166 4,000  Level Jacksonville Center
12:04PM 31.3547 -84.1139 347° North 144 166 4,000 -300 Level Jacksonville Center
12:05PM 31.3942 -84.1314 339° North 149 171 3,500 -720 Descending Jacksonville Center
12:06PM 31.4358 -84.1467 343° North 149 171 2,600 -900 Descending Jacksonville Center
12:07PM 31.4753 -84.1617 342° North 149 171 1,700 -720 Descending Jacksonville Center
12:08PM 31.5086 -84.1767 339° North 143 165 1,200 -360 Descending Jacksonville Center
12:09PM 31.5336 -84.1697 13° North 115 132 1,000 -300 Descending Jacksonville Center
12:10PM 31.5567 -84.1653 North 92 106 700 -300 Descending Jacksonville Center
12:11PM 31.5503 -84.1847 249° West 35 40 400 -300 Descending Jacksonville Center